Dan Viking — OVIL2 — position and weather

sailwx.info

Track history (hours):
 
Tides and Currents Weather Stations Pressure Air Temp Water Temp Dewpoint Dewpoint Depression Visibility Wind Speed Wind Dir Waves Ship Positions

Dan Viking

Last reported at 2014-Aug-25 06:34 UTC. Time now 2014-Aug-27 09:06 UTC.
Position N 55°11' E 012°18'.

Length 79 m; draft 3.6 m.

Type: Cargo ship. MMSI: 220439000.

Date/timePositionNaut miles runAvg speedWind from/ knotsBaromVisibWave heightAir tempDewpointWater temp
2014-Aug-25 06:34N 55°11' E 012°18'7 7.4
2014-Aug-25 05:33N 55°09' E 012°31'7 6.9
2014-Aug-25 04:33N 55°09' E 012°43'59 6.2
2014-Aug-24 19:06N 55°20' E 014°24'45 6.9
2014-Aug-24 12:29N 55°45' E 015°31'7 7.5
2014-Aug-24 11:33N 55°49' E 015°41'17 7.5
2014-Aug-24 09:14N 55°58' E 016°08'5 7.2
2014-Aug-24 08:33N 55°60' E 016°16'68 7.6
2014-Aug-23 23:33N 56°58' E 017°18'7 7.5
2014-Aug-23 22:33N 57°06' E 017°22'7 7.3
2014-Aug-23 21:33N 57°13' E 017°26'7 7.3
2014-Aug-23 20:33N 57°19' E 017°31'8 7.6
2014-Aug-23 19:31N 57°27' E 017°37'15 0.5
2014-Aug-22 11:32N 57°12' E 017°48'8 8.5
2014-Aug-22 10:33N 57°04' E 017°45'123 8.7
2014-Aug-21 20:29N 55°33' E 015°16'9 9.2
2014-Aug-21 19:33N 55°29' E 015°03'9 9.1
2014-Aug-21 18:33N 55°25' E 014°49'9 8.5
2014-Aug-21 17:32N 55°20' E 014°37'8 8.6
2014-Aug-21 16:33N 55°13' E 014°27'5 5.2
2014-Aug-21 15:33N 55°09' E 014°30'5 5.0
2014-Aug-21 14:33N 55°06' E 014°38'2 2.0
2014-Aug-21 13:29N 55°06' E 014°41'0 0.0
2014-Aug-21 12:30N 55°06' E 014°41'0 0.0
2014-Aug-21 11:30N 55°06' E 014°41'0 0.0
2014-Aug-21 10:24N 55°06' E 014°41'0 0.0
2014-Aug-21 09:30N 55°06' E 014°41'0 0.0
2014-Aug-21 08:30N 55°06' E 014°41'0 0.0
2014-Aug-21 07:30N 55°06' E 014°41'0 0.0
2014-Aug-21 06:30N 55°06' E 014°41'0 0.0
2014-Aug-21 05:34N 55°06' E 014°41'0 0.0
2014-Aug-21 04:33N 55°06' E 014°41'1 0.7
2014-Aug-21 03:34N 55°05' E 014°40'4 4.4
2014-Aug-21 02:33N 55°06' E 014°33'4 3.6
2014-Aug-21 01:33N 55°06' E 014°26'7 6.4
2014-Aug-21 00:29N 55°07' E 014°14'51 8.2
2014-Aug-20 18:17N 55°09' E 012°45'7 9.1
2014-Aug-20 17:31N 55°09' E 012°33'8 8.5
2014-Aug-20 16:32N 55°10' E 012°19'3 0.3
2014-Aug-20 06:31N 55°08' E 012°21'27 6.9
2014-Aug-20 02:33N 54°40' E 012°16'9 8.4
2014-Aug-20 01:32N 54°33' E 012°09'11 8.9
2014-Aug-20 00:15N 54°30' E 011°50'64 9.5
2014-Aug-19 17:29N 54°55' E 010°08'9 9.2
2014-Aug-19 16:33N 55°01' E 009°58'9 8.9
2014-Aug-19 15:33N 55°06' E 009°45'12 8.9
2014-Aug-19 14:15N 55°03' E 009°26'5 0.9
2014-Aug-19 08:33N 55°04' E 009°35'7 7.1
2014-Aug-19 07:33N 55°06' E 009°47'8 8.1
2014-Aug-19 06:32N 55°01' E 009°59'8 7.8
2014-Aug-19 05:32N 54°56' E 010°08'73 2.8
2014-Aug-18 03:33N 55°11' E 012°12'5 5.5
2014-Aug-18 02:33N 55°08' E 012°20'74 4.9
2014-Aug-17 11:25N 54°52' E 010°14'7 8.6
2014-Aug-17 10:33N 54°57' E 010°06'9 8.8
2014-Aug-17 09:33N 55°03' E 009°54'8 8.3
2014-Aug-17 08:33N 55°05' E 009°40'9 8.5
2014-Aug-17 07:33N 55°03' E 009°26'3 0.2
2014-Aug-16 11:18N 55°03' E 009°32'6 7.6
2014-Aug-16 10:33N 55°05' E 009°40'7 6.9
2014-Aug-16 09:33N 55°04' E 009°52'8 7.2
2014-Aug-16 08:27N 54°59' E 010°02'69 6.3
2014-Aug-15 21:32N 54°30' E 011°51'9 6.4
2014-Aug-15 20:05N 54°32' E 012°07'  
Track history (hours):
 
Tides and Currents Weather Stations Pressure Air Temp Water Temp Dewpoint Dewpoint Depression Visibility Wind Speed Wind Dir Waves Ship Positions

Dan Viking

Last reported at 2014-Aug-25 06:34 UTC. Time now 2014-Aug-27 09:06 UTC.
Position N 55°11' E 012°18'.

Length 79 m; draft 3.6 m.

Type: Cargo ship. MMSI: 220439000.

Date/timePositionNaut miles runAvg speedWind from/ knotsBaromVisibWave heightAir tempDewpointWater temp
2014-Aug-25 06:34N 55°11' E 012°18'7 7.4
2014-Aug-25 05:33N 55°09' E 012°31'7 6.9
2014-Aug-25 04:33N 55°09' E 012°43'59 6.2
2014-Aug-24 19:06N 55°20' E 014°24'45 6.9
2014-Aug-24 12:29N 55°45' E 015°31'7 7.5
2014-Aug-24 11:33N 55°49' E 015°41'17 7.5
2014-Aug-24 09:14N 55°58' E 016°08'5 7.2
2014-Aug-24 08:33N 55°60' E 016°16'68 7.6
2014-Aug-23 23:33N 56°58' E 017°18'7 7.5
2014-Aug-23 22:33N 57°06' E 017°22'7 7.3
2014-Aug-23 21:33N 57°13' E 017°26'7 7.3
2014-Aug-23 20:33N 57°19' E 017°31'8 7.6
2014-Aug-23 19:31N 57°27' E 017°37'15 0.5
2014-Aug-22 11:32N 57°12' E 017°48'8 8.5
2014-Aug-22 10:33N 57°04' E 017°45'123 8.7
2014-Aug-21 20:29N 55°33' E 015°16'9 9.2
2014-Aug-21 19:33N 55°29' E 015°03'9 9.1
2014-Aug-21 18:33N 55°25' E 014°49'9 8.5
2014-Aug-21 17:32N 55°20' E 014°37'8 8.6
2014-Aug-21 16:33N 55°13' E 014°27'5 5.2
2014-Aug-21 15:33N 55°09' E 014°30'5 5.0
2014-Aug-21 14:33N 55°06' E 014°38'2 2.0
2014-Aug-21 13:29N 55°06' E 014°41'0 0.0
2014-Aug-21 12:30N 55°06' E 014°41'0 0.0
2014-Aug-21 11:30N 55°06' E 014°41'0 0.0
2014-Aug-21 10:24N 55°06' E 014°41'0 0.0
2014-Aug-21 09:30N 55°06' E 014°41'0 0.0
2014-Aug-21 08:30N 55°06' E 014°41'0 0.0
2014-Aug-21 07:30N 55°06' E 014°41'0 0.0
2014-Aug-21 06:30N 55°06' E 014°41'0 0.0
2014-Aug-21 05:34N 55°06' E 014°41'0 0.0
2014-Aug-21 04:33N 55°06' E 014°41'1 0.7
2014-Aug-21 03:34N 55°05' E 014°40'4 4.4
2014-Aug-21 02:33N 55°06' E 014°33'4 3.6
2014-Aug-21 01:33N 55°06' E 014°26'7 6.4
2014-Aug-21 00:29N 55°07' E 014°14'51 8.2
2014-Aug-20 18:17N 55°09' E 012°45'7 9.1
2014-Aug-20 17:31N 55°09' E 012°33'8 8.5
2014-Aug-20 16:32N 55°10' E 012°19'3 0.3
2014-Aug-20 06:31N 55°08' E 012°21'27 6.9
2014-Aug-20 02:33N 54°40' E 012°16'9 8.4
2014-Aug-20 01:32N 54°33' E 012°09'11 8.9
2014-Aug-20 00:15N 54°30' E 011°50'64 9.5
2014-Aug-19 17:29N 54°55' E 010°08'9 9.2
2014-Aug-19 16:33N 55°01' E 009°58'9 8.9
2014-Aug-19 15:33N 55°06' E 009°45'12 8.9
2014-Aug-19 14:15N 55°03' E 009°26'5 0.9
2014-Aug-19 08:33N 55°04' E 009°35'7 7.1
2014-Aug-19 07:33N 55°06' E 009°47'8 8.1
2014-Aug-19 06:32N 55°01' E 009°59'8 7.8
2014-Aug-19 05:32N 54°56' E 010°08'73 2.8
2014-Aug-18 03:33N 55°11' E 012°12'5 5.5
2014-Aug-18 02:33N 55°08' E 012°20'74 4.9
2014-Aug-17 11:25N 54°52' E 010°14'7 8.6
2014-Aug-17 10:33N 54°57' E 010°06'9 8.8
2014-Aug-17 09:33N 55°03' E 009°54'8 8.3
2014-Aug-17 08:33N 55°05' E 009°40'9 8.5
2014-Aug-17 07:33N 55°03' E 009°26'3 0.2
2014-Aug-16 11:18N 55°03' E 009°32'6 7.6
2014-Aug-16 10:33N 55°05' E 009°40'7 6.9
2014-Aug-16 09:33N 55°04' E 009°52'8 7.2
2014-Aug-16 08:27N 54°59' E 010°02'69 6.3
2014-Aug-15 21:32N 54°30' E 011°51'9 6.4
2014-Aug-15 20:05N 54°32' E 012°07'  

Dump ship's entire track history